Winslow, Indiana
Current Conditions -  °F | °C
As of 10:35 PM on Saturday 20 Dec 2014 (Local Time) from KHNB Reporting Station
Clear Clear  
Wind Chill: 21°   Ceiling: Unl
Heat Index: 27°   Visibility: 5mi
Dew Point: 21°   Wind: 5mph
Humidity: 80%   Direction: 90°E
Pressure: 30.3"   Gusts: NA
Location:  38.38°N, 87.21°W
Report Text: KHNB 210435Z AUTO 09004KT 5SM CLR M03/M06 A3030 RMK AO1
Loading
Personal Weather Stations






























Interactive Weather Map New forecast layout! Learn more

10-Day Weather Forecast

Advertisements
Track Severe Weather on mobile